createdAt,value
2022-08-26T00:01:37.593Z,4.90
2022-08-26T00:04:06.953Z,4.40
2022-08-26T00:06:36.881Z,4.70
2022-08-26T00:11:37.943Z,4.90
2022-08-26T00:14:07.839Z,4.50
2022-08-26T00:16:37.851Z,5.10
2022-08-26T00:19:10.696Z,4.40
2022-08-26T00:26:41.896Z,4.50
2022-08-26T00:29:13.557Z,5.10
2022-08-26T00:31:45.231Z,4.60
2022-08-26T00:34:16.501Z,4.90
2022-08-26T00:36:52.098Z,4.80
2022-08-26T00:39:21.946Z,5.30
2022-08-26T00:41:53.657Z,5.10
2022-08-26T00:44:24.340Z,4.40
2022-08-26T00:47:00.495Z,4.30
2022-08-26T00:49:40.411Z,5.20
2022-08-26T00:52:15.994Z,4.80
2022-08-26T00:54:57.236Z,4.60
2022-08-26T00:57:27.179Z,4.90
2022-08-26T01:00:01.272Z,4.70
2022-08-26T01:02:30.967Z,4.60
2022-08-26T01:05:03.641Z,4.70
2022-08-26T01:07:34.676Z,5.20
2022-08-26T01:10:10.276Z,5.00
2022-08-26T01:12:56.169Z,5.00
2022-08-26T01:15:40.829Z,6.60
2022-08-26T01:18:14.047Z,6.70
2022-08-26T01:20:52.368Z,6.20
2022-08-26T01:23:42.432Z,5.80
2022-08-26T01:26:30.470Z,5.40
2022-08-26T01:29:03.418Z,4.90
2022-08-26T01:31:43.242Z,5.40
2022-08-26T01:34:21.687Z,6.40
2022-08-26T01:36:56.497Z,6.00
2022-08-26T01:39:26.618Z,6.30
2022-08-26T01:41:58.719Z,6.40
2022-08-26T01:44:39.895Z,5.40
2022-08-26T01:47:10.753Z,5.70
2022-08-26T01:49:40.507Z,6.40
2022-08-26T01:52:14.647Z,6.00
2022-08-26T01:54:46.350Z,5.30
2022-08-26T01:57:21.687Z,5.80
2022-08-26T01:59:57.398Z,6.10
2022-08-26T02:02:28.224Z,6.50
2022-08-26T02:05:05.115Z,5.00
2022-08-26T02:07:35.133Z,4.90
2022-08-26T02:10:05.662Z,5.80
2022-08-26T02:12:36.808Z,4.90
2022-08-26T02:15:12.174Z,5.50
2022-08-26T02:17:47.710Z,5.00
2022-08-26T02:20:20.059Z,6.00
2022-08-26T02:22:50.396Z,6.00
2022-08-26T02:25:41.831Z,5.70
2022-08-26T02:28:14.056Z,6.10
2022-08-26T02:30:45.236Z,6.10
2022-08-26T02:33:16.079Z,6.40
2022-08-26T02:35:47.362Z,4.60
2022-08-26T02:38:18.244Z,5.50
2022-08-26T02:40:48.770Z,5.80
2022-08-26T02:43:31.518Z,6.00
2022-08-26T02:46:03.461Z,4.70
2022-08-26T02:48:33.414Z,5.60
2022-08-26T02:51:02.856Z,5.90
2022-08-26T02:53:35.566Z,5.90
2022-08-26T02:56:08.951Z,4.80
2022-08-26T02:58:38.421Z,6.70
2022-08-26T03:01:09.024Z,6.50
2022-08-26T03:03:38.476Z,6.30
2022-08-26T03:06:08.665Z,6.50
2022-08-26T03:08:38.910Z,5.00
2022-08-26T03:11:09.444Z,5.40
2022-08-26T03:13:41.786Z,5.20
2022-08-26T03:16:11.828Z,6.40
2022-08-26T03:18:43.604Z,5.20
2022-08-26T03:21:23.055Z,7.00
2022-08-26T03:23:52.325Z,6.40
2022-08-26T03:26:21.621Z,5.50
2022-08-26T03:29:08.746Z,6.30
2022-08-26T03:31:39.691Z,5.30
2022-08-26T03:34:11.308Z,6.20
2022-08-26T03:36:41.611Z,5.20
2022-08-26T03:39:13.357Z,5.90
2022-08-26T03:41:46.015Z,5.90
2022-08-26T03:44:15.920Z,5.30
2022-08-26T03:46:46.797Z,6.20
2022-08-26T03:49:16.459Z,5.00
2022-08-26T03:51:45.720Z,6.60
2022-08-26T03:54:15.271Z,6.30
2022-08-26T03:56:46.523Z,6.10
2022-08-26T03:59:15.912Z,5.60
2022-08-26T04:01:44.848Z,5.70
2022-08-26T04:04:15.535Z,5.70
2022-08-26T04:06:45.038Z,6.50
2022-08-26T04:09:18.942Z,6.40
2022-08-26T04:11:50.363Z,5.60
2022-08-26T04:14:22.739Z,5.80
2022-08-26T04:16:55.279Z,5.90
2022-08-26T04:19:26.180Z,4.80
2022-08-26T04:21:55.478Z,5.40
2022-08-26T04:24:26.945Z,6.50
2022-08-26T04:26:57.268Z,6.50
2022-08-26T04:29:27.492Z,5.30
2022-08-26T04:31:56.775Z,4.80
2022-08-26T04:34:28.559Z,5.60
2022-08-26T04:36:58.363Z,5.60
2022-08-26T04:39:28.262Z,5.10
2022-08-26T04:44:29.970Z,5.70
2022-08-26T04:46:59.143Z,5.30
2022-08-26T04:49:28.567Z,4.20
2022-08-26T04:52:05.612Z,5.00
2022-08-26T04:54:34.504Z,5.80
2022-08-26T04:57:03.781Z,5.10
2022-08-26T04:59:36.005Z,5.20
2022-08-26T05:02:08.391Z,5.70
2022-08-26T05:04:38.067Z,5.50
2022-08-26T05:07:08.372Z,5.30
2022-08-26T05:09:41.065Z,4.30
2022-08-26T05:12:10.873Z,4.30
2022-08-26T05:14:41.809Z,5.80
2022-08-26T05:17:13.988Z,4.90
2022-08-26T05:19:43.996Z,4.20
2022-08-26T05:22:14.243Z,5.00
2022-08-26T05:24:44.034Z,4.80
2022-08-26T05:27:14.567Z,5.50
2022-08-26T05:29:43.445Z,5.50
2022-08-26T05:32:13.259Z,6.00
2022-08-26T05:37:13.643Z,5.00
2022-08-26T05:39:48.828Z,4.40
2022-08-26T05:42:21.767Z,4.20
2022-08-26T05:44:55.942Z,4.90
2022-08-26T05:47:26.987Z,5.30
2022-08-26T05:49:56.479Z,5.20
2022-08-26T05:52:26.138Z,4.70
2022-08-26T05:54:55.812Z,5.20
2022-08-26T05:57:24.583Z,5.40
2022-08-26T05:59:53.280Z,4.80
2022-08-26T06:02:22.188Z,5.10
2022-08-26T06:04:51.149Z,4.90
2022-08-26T06:07:40.525Z,5.10
2022-08-26T06:10:31.707Z,5.30
2022-08-26T06:13:09.356Z,5.10
2022-08-26T06:18:17.137Z,5.20
2022-08-26T06:20:56.857Z,4.50
2022-08-26T06:23:48.415Z,4.90
2022-08-26T06:26:17.718Z,4.50
2022-08-26T06:31:16.556Z,5.00
2022-08-26T06:36:24.682Z,4.20
2022-08-26T06:41:23.960Z,3.90
2022-08-26T06:43:54.088Z,4.40
2022-08-26T06:46:23.247Z,4.90
2022-08-26T06:48:55.810Z,5.20
2022-08-26T06:51:28.112Z,4.20
2022-08-26T06:54:00.108Z,5.10
2022-08-26T06:56:49.994Z,4.80
2022-08-26T06:59:19.782Z,4.60
2022-08-26T07:01:48.630Z,4.30
2022-08-26T07:04:20.223Z,5.30
2022-08-26T07:06:53.863Z,4.00
2022-08-26T07:09:26.097Z,5.40
2022-08-26T07:11:56.565Z,4.60
2022-08-26T07:14:26.838Z,4.00
2022-08-26T07:16:55.734Z,4.90
2022-08-26T07:22:03.930Z,4.90
2022-08-26T07:24:35.406Z,5.70
2022-08-26T07:27:08.723Z,6.30
2022-08-26T07:29:39.697Z,5.80
2022-08-26T07:32:10.170Z,5.60
2022-08-26T07:34:39.569Z,5.40
2022-08-26T07:37:11.127Z,6.40
2022-08-26T07:39:43.216Z,6.30
2022-08-26T07:42:16.178Z,5.50
2022-08-26T07:44:48.340Z,6.10
2022-08-26T07:47:24.828Z,6.60
2022-08-26T07:49:57.922Z,5.60
2022-08-26T07:52:29.467Z,5.10
2022-08-26T07:55:00.284Z,5.00
2022-08-26T07:57:30.783Z,5.50
2022-08-26T08:00:00.015Z,7.70
2022-08-26T08:02:31.848Z,4.70
2022-08-26T08:05:01.095Z,4.80
2022-08-26T08:07:44.529Z,4.40
2022-08-26T08:10:19.206Z,5.40
2022-08-26T08:12:50.639Z,5.00
2022-08-26T08:15:25.320Z,4.50
2022-08-26T08:17:57.675Z,4.50
2022-08-26T08:20:28.815Z,4.30
2022-08-26T08:22:57.707Z,4.80
2022-08-26T08:25:26.801Z,4.60
2022-08-26T08:27:55.597Z,4.50
2022-08-26T08:30:27.106Z,5.00
2022-08-26T08:32:56.544Z,4.90
2022-08-26T08:35:26.767Z,4.40
2022-08-26T08:37:55.865Z,3.90
2022-08-26T08:40:27.022Z,4.30
2022-08-26T08:43:04.933Z,4.20
2022-08-26T08:45:42.956Z,4.60
2022-08-26T08:48:35.967Z,4.30
2022-08-26T08:51:19.300Z,4.20
2022-08-26T08:53:50.893Z,4.10
2022-08-26T08:56:29.058Z,3.70
2022-08-26T08:59:14.711Z,3.90
2022-08-26T09:01:53.925Z,4.30
2022-08-26T09:04:51.848Z,4.40
2022-08-26T09:07:47.565Z,3.20
2022-08-26T09:10:29.869Z,3.90
2022-08-26T09:12:59.887Z,3.90
2022-08-26T09:15:33.895Z,4.10
2022-08-26T09:18:25.214Z,3.30
2022-08-26T09:21:04.037Z,3.00
2022-08-26T09:23:36.339Z,3.00
2022-08-26T09:26:16.875Z,2.80
2022-08-26T09:28:49.765Z,3.70
2022-08-26T09:31:27.027Z,2.90
2022-08-26T09:36:51.994Z,2.50
2022-08-26T09:39:34.169Z,2.90
2022-08-26T09:42:11.769Z,2.70
2022-08-26T09:45:00.611Z,3.00
2022-08-26T09:47:54.834Z,2.70
2022-08-26T09:50:32.612Z,2.80
2022-08-26T09:53:15.307Z,3.10
2022-08-26T09:55:48.193Z,2.90
2022-08-26T09:58:35.514Z,2.30
2022-08-26T10:01:10.128Z,2.40
2022-08-26T10:03:40.262Z,2.80
2022-08-26T10:06:17.957Z,2.80
2022-08-26T10:09:00.102Z,2.70
2022-08-26T10:11:47.757Z,2.30
2022-08-26T10:14:26.749Z,2.90
2022-08-26T10:17:07.489Z,2.20
2022-08-26T10:19:55.979Z,3.00
2022-08-26T10:22:47.458Z,2.30
2022-08-26T10:25:22.283Z,2.20
2022-08-26T10:27:55.471Z,2.60
2022-08-26T10:30:28.158Z,2.70
2022-08-26T10:33:10.569Z,2.00
2022-08-26T10:35:51.455Z,2.30
2022-08-26T10:38:30.751Z,2.50
2022-08-26T10:41:24.308Z,2.50
2022-08-26T10:43:58.660Z,2.10
2022-08-26T10:46:39.944Z,2.30
2022-08-26T10:49:13.604Z,2.40
2022-08-26T10:51:51.231Z,2.20
2022-08-26T10:54:46.744Z,2.10
2022-08-26T10:57:47.686Z,2.00
2022-08-26T11:00:41.387Z,2.00
2022-08-26T11:03:37.492Z,2.00
2022-08-26T11:06:16.414Z,2.20
2022-08-26T11:08:57.182Z,2.00
2022-08-26T11:11:42.463Z,2.20
2022-08-26T11:14:29.278Z,1.90
2022-08-26T11:17:00.326Z,2.40
2022-08-26T11:20:01.407Z,2.00
2022-08-26T11:22:35.264Z,1.90
2022-08-26T11:25:07.045Z,2.30
2022-08-26T11:27:37.994Z,2.60
2022-08-26T11:30:20.056Z,1.60
2022-08-26T11:32:55.603Z,2.10
2022-08-26T11:35:25.006Z,2.10
2022-08-26T11:38:12.846Z,1.90
2022-08-26T11:43:19.996Z,2.50
2022-08-26T11:46:00.982Z,2.60
2022-08-26T11:48:33.560Z,3.20
2022-08-26T11:51:21.223Z,2.20
2022-08-26T11:53:51.551Z,2.20
2022-08-26T11:56:32.798Z,2.30
2022-08-26T11:59:07.554Z,2.20
2022-08-26T12:01:42.130Z,2.10
2022-08-26T12:04:18.231Z,2.20
2022-08-26T12:06:51.301Z,2.70
2022-08-26T12:09:31.586Z,2.20
2022-08-26T12:12:14.961Z,2.40
2022-08-26T12:14:44.610Z,2.50
2022-08-26T12:17:15.663Z,2.50
2022-08-26T12:19:44.651Z,2.30
2022-08-26T12:22:48.565Z,2.40
2022-08-26T12:25:24.112Z,2.00
2022-08-26T12:27:53.986Z,2.00
2022-08-26T12:30:26.273Z,2.30
2022-08-26T12:33:21.897Z,2.50
2022-08-26T12:38:27.765Z,2.10
2022-08-26T12:40:57.607Z,2.10
2022-08-26T12:43:43.691Z,2.30
2022-08-26T12:46:27.896Z,1.80
2022-08-26T12:49:02.153Z,1.80
2022-08-26T12:51:33.100Z,1.90
2022-08-26T12:54:07.113Z,2.30
2022-08-26T12:56:40.089Z,2.20
2022-08-26T12:59:10.276Z,1.80
2022-08-26T13:01:44.168Z,1.80
2022-08-26T13:04:46.695Z,1.60
2022-08-26T13:07:27.666Z,1.90
2022-08-26T13:09:58.404Z,2.50
2022-08-26T13:12:37.607Z,2.10
2022-08-26T13:15:07.603Z,2.10
2022-08-26T13:17:36.337Z,2.00
2022-08-26T13:20:05.306Z,2.10
2022-08-26T13:22:34.368Z,2.10
2022-08-26T13:25:03.110Z,2.20
2022-08-26T13:27:31.801Z,2.40
2022-08-26T13:30:02.179Z,2.50
2022-08-26T13:32:32.146Z,2.30
2022-08-26T13:35:05.792Z,2.20
2022-08-26T13:37:35.629Z,1.90
2022-08-26T13:40:08.748Z,2.60
2022-08-26T13:42:37.533Z,2.00
2022-08-26T13:45:18.608Z,2.10
2022-08-26T13:47:47.710Z,2.30
2022-08-26T13:50:16.493Z,2.20
2022-08-26T13:52:45.073Z,2.10
2022-08-26T13:55:13.669Z,2.30
2022-08-26T14:00:12.076Z,2.20
2022-08-26T14:02:43.606Z,2.40
2022-08-26T14:05:13.213Z,2.30
2022-08-26T14:07:42.990Z,2.10
2022-08-26T14:10:12.325Z,2.00
2022-08-26T14:12:40.914Z,2.20
2022-08-26T14:15:10.177Z,2.40
2022-08-26T14:17:39.460Z,2.30
2022-08-26T14:20:14.236Z,2.30
2022-08-26T14:23:03.418Z,2.30
2022-08-26T14:25:34.843Z,2.30
2022-08-26T14:28:04.788Z,2.30
2022-08-26T14:30:33.452Z,2.30
2022-08-26T14:33:02.138Z,2.30
2022-08-26T14:38:00.330Z,2.10
2022-08-26T14:40:31.965Z,2.00
2022-08-26T14:43:02.998Z,1.90
2022-08-26T14:45:37.955Z,2.50
2022-08-26T14:48:07.978Z,2.90
2022-08-26T14:50:36.759Z,2.50
2022-08-26T14:53:24.081Z,2.50
2022-08-26T14:55:53.185Z,2.40
2022-08-26T14:58:21.861Z,2.00
2022-08-26T15:00:50.551Z,2.50
2022-08-26T15:05:52.790Z,2.20
2022-08-26T15:08:21.930Z,2.10
2022-08-26T15:10:51.231Z,2.60
2022-08-26T15:13:19.812Z,2.10
2022-08-26T15:15:48.449Z,1.90
2022-08-26T15:18:16.980Z,2.30
2022-08-26T15:20:45.560Z,2.10
2022-08-26T15:23:14.251Z,2.40
2022-08-26T15:25:44.837Z,2.30
2022-08-26T15:28:14.281Z,2.70
2022-08-26T15:33:15.417Z,2.20
2022-08-26T15:35:45.576Z,1.80
2022-08-26T15:38:14.150Z,2.10
2022-08-26T15:40:43.749Z,2.30
2022-08-26T15:43:27.615Z,2.10
2022-08-26T15:45:58.006Z,2.20
2022-08-26T15:48:27.115Z,2.30
2022-08-26T15:50:59.226Z,2.40
2022-08-26T15:53:30.550Z,2.60
2022-08-26T15:56:01.188Z,2.30
2022-08-26T15:58:30.769Z,2.10
2022-08-26T16:01:00.170Z,2.10
2022-08-26T16:03:28.954Z,2.60
2022-08-26T16:05:57.579Z,2.40
2022-08-26T16:08:26.225Z,2.20
2022-08-26T16:11:03.407Z,2.40
2022-08-26T16:13:40.058Z,2.60
2022-08-26T16:16:09.924Z,2.10
2022-08-26T16:18:39.803Z,2.60
2022-08-26T16:21:13.175Z,2.60
2022-08-26T16:23:45.170Z,2.10
2022-08-26T16:26:17.928Z,2.50
2022-08-26T16:28:47.750Z,1.90
2022-08-26T16:31:17.621Z,2.60
2022-08-26T16:33:46.775Z,2.50
2022-08-26T16:36:15.568Z,2.50
2022-08-26T16:38:56.017Z,2.50
2022-08-26T16:41:29.120Z,2.20
2022-08-26T16:43:59.230Z,2.40
2022-08-26T16:46:28.656Z,2.60
2022-08-26T16:48:58.770Z,2.40
2022-08-26T16:51:28.562Z,2.90
2022-08-26T16:53:59.207Z,2.90
2022-08-26T16:56:33.715Z,3.20
2022-08-26T16:59:10.827Z,4.00
2022-08-26T17:01:39.673Z,4.40
2022-08-26T17:04:08.797Z,3.80
2022-08-26T17:06:38.593Z,4.80
2022-08-26T17:09:08.175Z,4.00
2022-08-26T17:11:36.853Z,3.70
2022-08-26T17:14:06.392Z,3.20
2022-08-26T17:16:35.514Z,3.00
2022-08-26T17:19:05.983Z,4.00
2022-08-26T17:21:36.809Z,4.00
2022-08-26T17:24:07.143Z,2.60
2022-08-26T17:26:37.601Z,2.10
2022-08-26T17:29:07.608Z,2.70
2022-08-26T17:31:36.507Z,2.50
2022-08-26T17:34:06.015Z,2.90
2022-08-26T17:36:35.722Z,2.70
2022-08-26T17:41:33.504Z,3.20
2022-08-26T17:44:02.296Z,3.40
2022-08-26T17:46:33.245Z,3.40
2022-08-26T17:49:04.893Z,3.10
2022-08-26T17:51:33.673Z,2.50
2022-08-26T17:54:02.265Z,3.40
2022-08-26T17:56:31.465Z,4.10
2022-08-26T17:59:02.422Z,3.90
2022-08-26T18:01:33.458Z,3.70
2022-08-26T18:06:33.402Z,3.30
2022-08-26T18:09:02.049Z,3.50
2022-08-26T18:11:32.044Z,3.00
2022-08-26T18:14:01.269Z,2.80
2022-08-26T18:16:34.454Z,3.50
2022-08-26T18:19:03.110Z,3.40
2022-08-26T18:21:32.439Z,3.50
2022-08-26T18:24:01.328Z,3.70
2022-08-26T18:26:34.629Z,3.60
2022-08-26T18:29:04.633Z,3.60
2022-08-26T18:31:34.013Z,3.90
2022-08-26T18:34:03.444Z,3.10
2022-08-26T18:39:05.958Z,3.30
2022-08-26T18:41:39.742Z,3.90
2022-08-26T18:44:12.946Z,3.50
2022-08-26T18:46:44.428Z,3.50
2022-08-26T18:49:14.827Z,4.20
2022-08-26T18:51:45.296Z,4.50
2022-08-26T18:54:15.133Z,4.20
2022-08-26T18:56:44.355Z,4.10
2022-08-26T18:59:14.224Z,3.70
2022-08-26T19:04:15.753Z,3.50
2022-08-26T19:06:47.887Z,3.70
2022-08-26T19:09:18.098Z,3.30
2022-08-26T19:11:47.239Z,3.30
2022-08-26T19:14:19.076Z,3.50
2022-08-26T19:16:50.219Z,2.90
2022-08-26T19:19:21.251Z,3.10
2022-08-26T19:21:50.764Z,2.60
2022-08-26T19:24:20.346Z,3.50
2022-08-26T19:26:58.058Z,3.70
2022-08-26T19:29:31.135Z,3.70
2022-08-26T19:32:00.128Z,4.00
2022-08-26T19:34:28.833Z,4.20
2022-08-26T19:36:58.705Z,3.40
2022-08-26T19:39:27.539Z,3.30
2022-08-26T19:41:56.129Z,3.10
2022-08-26T19:44:43.550Z,2.90
2022-08-26T19:47:13.465Z,3.00
2022-08-26T19:49:42.251Z,3.20
2022-08-26T19:52:11.856Z,4.20
2022-08-26T19:54:41.323Z,4.60
2022-08-26T19:57:10.047Z,5.40
2022-08-26T19:59:41.189Z,7.60
2022-08-26T20:02:11.246Z,6.20
2022-08-26T20:04:41.804Z,5.70
2022-08-26T20:07:12.958Z,5.60
2022-08-26T20:09:44.021Z,4.50
2022-08-26T20:12:14.457Z,3.70
2022-08-26T20:14:44.264Z,3.40
2022-08-26T20:17:13.966Z,3.90
2022-08-26T20:20:00.851Z,3.90
2022-08-26T20:22:29.464Z,3.00
2022-08-26T20:24:59.379Z,4.30
2022-08-26T20:27:34.352Z,4.10
2022-08-26T20:30:09.503Z,4.40
2022-08-26T20:32:39.153Z,4.20
2022-08-26T20:37:39.041Z,4.50
2022-08-26T20:40:10.702Z,3.90
2022-08-26T20:42:39.529Z,3.20
2022-08-26T20:45:09.082Z,3.80
2022-08-26T20:47:39.055Z,3.50
2022-08-26T20:50:08.861Z,3.60
2022-08-26T20:55:06.447Z,4.50
2022-08-26T20:57:35.129Z,4.50
2022-08-26T21:00:06.147Z,3.90
2022-08-26T21:02:35.158Z,3.80
2022-08-26T21:05:04.907Z,3.60
2022-08-26T21:07:33.659Z,3.50
2022-08-26T21:10:02.857Z,4.00
2022-08-26T21:12:32.158Z,3.90
2022-08-26T21:15:01.056Z,3.80
2022-08-26T21:17:29.731Z,4.10
2022-08-26T21:19:58.314Z,3.60
2022-08-26T21:22:26.867Z,4.40
2022-08-26T21:24:55.993Z,4.20
2022-08-26T21:27:26.333Z,4.30
2022-08-26T21:29:55.717Z,3.60
2022-08-26T21:32:24.888Z,4.50
2022-08-26T21:34:58.339Z,5.00
2022-08-26T21:37:29.091Z,4.70
2022-08-26T21:39:59.602Z,4.90
2022-08-26T21:42:33.410Z,3.70
2022-08-26T21:45:03.382Z,4.90
2022-08-26T21:47:32.899Z,5.20
2022-08-26T21:50:01.588Z,5.00
2022-08-26T21:52:30.288Z,6.10
2022-08-26T21:55:01.444Z,5.30
2022-08-26T21:57:30.629Z,5.50
2022-08-26T22:00:00.028Z,7.50
2022-08-26T22:02:30.279Z,8.00
2022-08-26T22:04:59.134Z,8.90
2022-08-26T22:07:28.026Z,7.20
2022-08-26T22:09:56.804Z,6.30
2022-08-26T22:12:25.699Z,5.70
2022-08-26T22:14:54.898Z,6.50
2022-08-26T22:17:24.202Z,6.20
2022-08-26T22:19:53.498Z,5.30
2022-08-26T22:22:23.731Z,5.30
2022-08-26T22:24:52.514Z,5.20
2022-08-26T22:27:21.099Z,5.30
2022-08-26T22:29:51.103Z,5.80
2022-08-26T22:32:19.893Z,5.70
2022-08-26T22:34:48.946Z,6.90
2022-08-26T22:37:17.675Z,6.20
2022-08-26T22:39:47.897Z,5.90
2022-08-26T22:42:17.301Z,5.40
2022-08-26T22:44:46.703Z,5.40
2022-08-26T22:47:15.905Z,5.60
2022-08-26T22:49:45.013Z,5.40
2022-08-26T22:52:14.952Z,6.50
2022-08-26T22:54:44.096Z,5.60
2022-08-26T22:57:14.874Z,6.50
2022-08-26T22:59:43.949Z,6.00
2022-08-26T23:02:14.249Z,4.30
2022-08-26T23:04:43.159Z,5.70
2022-08-26T23:07:12.361Z,4.80
2022-08-26T23:09:41.473Z,4.60
2022-08-26T23:12:11.260Z,5.10
2022-08-26T23:14:41.895Z,4.70
2022-08-26T23:17:12.726Z,5.10
2022-08-26T23:19:42.013Z,5.00
2022-08-26T23:22:12.455Z,5.00
2022-08-26T23:24:42.024Z,5.10
2022-08-26T23:27:11.450Z,4.70
2022-08-26T23:29:40.363Z,5.70
2022-08-26T23:32:10.876Z,5.90
2022-08-26T23:35:01.923Z,6.00
2022-08-26T23:37:35.880Z,5.50
2022-08-26T23:40:08.623Z,5.20
2022-08-26T23:42:37.993Z,5.90
2022-08-26T23:45:10.019Z,5.50
2022-08-26T23:47:41.515Z,5.50
2022-08-26T23:50:11.624Z,4.80
2022-08-26T23:52:59.658Z,4.70
2022-08-26T23:55:29.161Z,4.90
2022-08-26T23:57:59.485Z,5.20
